Time;durP1;ratioP1;P1;durP2;ratioP2;P2;SDS_P1;SDS_P2;PMS_P1;PMS_P2;Temp;Humidity;BMP_temperature;BMP_pressure;BME280_temperature;BME280_humidity;BME280_pressure;Samples;Min_cycle;Max_cycle;Signal;HPM_P1;HPM_P2
2023/01/05 00:05:21;;;;;;;2.30;1.33;;;;;;;;;;4992140;28;20049;-88
2023/01/05 00:07:57;;;;;;;1.95;1.15;;;11.00;99.90;;;;;;5003945;28;20019;-89
2023/01/05 00:22:30;;;;;;;1.25;1.00;;;11.10;99.90;;;;;;4976074;28;20033;-88
2023/01/05 00:25:05;;;;;;;3.25;1.00;;;11.10;99.90;;;;;;4967832;28;20015;-88
2023/01/05 00:27:32;;;;;;;3.63;0.90;;;11.10;99.90;;;;;;4981918;28;20016;-86
2023/01/05 00:29:59;;;;;;;2.75;1.25;;;11.20;99.90;;;;;;4969034;28;20035;-89
2023/01/05 00:32:25;;;;;;;0.85;0.73;;;11.20;99.90;;;;;;4969953;28;20042;-86
2023/01/05 00:34:54;;;;;;;0.70;0.70;;;12.60;99.90;;;;;;4974187;28;20031;-88
2023/01/05 00:37:22;;;;;;;3.95;0.98;;;11.20;99.90;;;;;;4978577;28;20047;-89
2023/01/05 00:39:51;;;;;;;1.20;0.80;;;11.20;99.90;;;;;;4965774;28;20102;-89
2023/01/05 00:42:17;;;;;;;1.55;0.85;;;;;;;;;;4979656;28;20023;-88
2023/01/05 00:44:43;;;;;;;1.20;0.88;;;;;;;;;;4965275;28;20043;-89
2023/01/05 00:47:12;;;;;;;3.05;1.10;;;;;;;;;;4968408;28;20018;-88
2023/01/05 00:49:37;;;;;;;0.70;0.70;;;10.90;99.90;;;;;;4962438;28;20024;-88
2023/01/05 00:52:39;;;;;;;1.30;0.65;;;11.20;99.90;;;;;;4971109;28;20102;-87
2023/01/05 00:55:05;;;;;;;1.17;0.57;;;;;;;;;;4959758;28;20075;-86
2023/01/05 00:57:31;;;;;;;2.20;0.70;;;11.10;99.90;;;;;;4962528;28;20027;-88
2023/01/05 00:59:56;;;;;;;0.65;0.60;;;11.20;99.90;;;;;;4980331;28;20031;-87
2023/01/05 01:02:22;;;;;;;1.20;0.80;;;;;;;;;;4985057;28;20047;-87
2023/01/05 06:25:37;;;;;;;;;;;;;;;;;;;;;
2023/01/05 06:31:30;;;;;;;9.68;2.20;;;11.40;99.90;;;;;;4956727;29;20071;-80
2023/01/05 06:34:09;;;;;;;11.35;1.75;;;11.40;99.90;;;;;;4959637;29;20071;-80
2023/01/05 06:40:18;;;;;;;10.80;2.20;;;11.40;99.90;;;;;;4943061;29;20118;-81
2023/01/05 06:43:48;;;;;;;16.95;2.60;;;11.50;99.90;;;;;;4857428;29;20044;-80
2023/01/05 06:57:09;;;;;;;8.35;1.58;;;11.20;99.90;;;;;;4784844;29;20057;-80
2023/01/05 07:20:33;;;;;;;10.05;2.15;;;11.10;99.90;;;;;;4787634;30;20178;-80
2023/01/05 07:23:42;;;;;;;12.30;2.08;;;11.10;99.90;;;;;;4758881;30;20102;-81
2023/01/05 07:30:19;;;;;;;;;;;;;;;;;;;;;
2023/01/05 07:40:20;;;;;;;13.77;2.53;;;11.00;99.90;;;;;;4838023;29;20152;-80
2023/01/05 07:57:37;;;;;;;12.38;2.15;;;11.10;99.90;;;;;;4823462;29;20037;-81
2023/01/05 08:22:26;;;;;;;12.75;2.55;;;11.00;99.90;;;;;;4949469;28;20047;-88
2023/01/05 08:24:52;;;;;;;17.20;2.80;;;;;;;;;;4963469;28;20039;-88
2023/01/05 08:27:18;;;;;;;12.95;2.55;;;;;;;;;;4939687;28;20027;-88
2023/01/05 08:29:44;;;;;;;18.60;3.40;;;;;;;;;;4963599;28;20035;-87
2023/01/05 08:32:10;;;;;;;13.25;2.47;;;;;;;;;;4962870;28;20019;-90
2023/01/05 08:34:36;;;;;;;11.73;2.28;;;;;;;;;;4947644;28;20040;-89
2023/01/05 08:37:02;;;;;;;16.33;2.72;;;11.10;99.90;;;;;;4963297;28;20087;-90
2023/01/05 08:39:28;;;;;;;15.70;3.08;;;;;;;;;;4938148;29;20020;-91
2023/01/05 08:41:54;;;;;;;16.67;2.80;;;;;;;;;;4944502;28;20092;-88
2023/01/05 08:46:59;;;;;;;20.48;3.60;;;11.10;99.90;;;;;;4946020;29;20079;-85
2023/01/05 10:34:21;;;;;;;17.58;3.08;;;11.90;99.90;;;;;;5097828;23;20085;-86
2023/01/05 10:37:25;;;;;;;18.67;2.60;;;12.10;99.90;;;;;;5012075;28;20048;-85
2023/01/05 10:40:00;;;;;;;12.80;2.60;;;12.10;99.90;;;;;;5012635;28;20121;-86
2023/01/05 10:42:42;;;;;;;13.48;2.72;;;12.20;99.90;;;;;;4999640;28;20033;-86
2023/01/05 10:45:12;;;;;;;10.57;2.33;;;12.30;99.90;;;;;;5009350;28;20033;-86
2023/01/05 10:47:39;;;;;;;11.82;2.47;;;12.20;99.90;;;;;;5017156;28;20033;-85
2023/01/05 10:50:35;;;;;;;18.67;3.78;;;12.20;99.90;;;;;;5020976;28;20030;-85
2023/01/05 10:53:07;;;;;;;14.82;2.40;;;12.30;99.90;;;;;;4990414;28;20033;-84
2023/01/05 10:55:58;;;;;;;15.82;2.55;;;12.40;99.90;;;;;;5005405;28;20026;-83
2023/01/05 10:58:33;;;;;;;15.98;2.58;;;12.50;99.90;;;;;;5024394;28;20049;-85
2023/01/05 11:01:03;;;;;;;16.05;3.33;;;12.50;99.90;;;;;;5006045;28;20026;-85
2023/01/05 11:03:39;;;;;;;14.43;3.00;;;12.50;99.90;;;;;;5004887;28;20021;-85
2023/01/05 11:06:08;;;;;;;15.63;2.83;;;12.50;99.90;;;;;;5005690;28;20112;-85
2023/01/05 11:08:34;;;;;;;17.27;3.35;;;12.60;99.90;;;;;;5014198;28;20050;-85
2023/01/05 11:11:03;;;;;;;16.35;2.58;;;12.60;99.90;;;;;;5002156;28;20030;-86
2023/01/05 11:13:32;;;;;;;15.20;2.67;;;12.60;99.90;;;;;;5006736;28;20444;-86
2023/01/05 11:16:09;;;;;;;15.73;3.15;;;12.60;99.90;;;;;;5002986;28;20026;-86
2023/01/05 11:18:57;;;;;;;19.52;3.40;;;12.60;99.90;;;;;;5006232;28;20026;-87
2023/01/05 11:21:42;;;;;;;15.38;2.97;;;12.60;99.90;;;;;;4997195;28;20030;-84
2023/01/05 11:24:28;;;;;;;17.08;3.17;;;12.60;99.90;;;;;;4997449;28;20026;-86
2023/01/05 11:27:01;;;;;;;16.52;2.47;;;12.50;99.90;;;;;;5005011;28;20026;-84
2023/01/05 11:29:28;;;;;;;10.60;2.50;;;12.60;99.90;;;;;;5005633;28;20025;-86
2023/01/05 11:32:09;;;;;;;16.17;2.60;;;12.70;99.90;;;;;;5008575;28;20029;-84
2023/01/05 11:34:41;;;;;;;9.68;2.17;;;12.80;99.90;;;;;;5002934;28;20529;-85
2023/01/05 11:37:29;;;;;;;11.98;2.85;;;12.70;99.90;;;;;;5006051;28;20029;-80
2023/01/05 11:39:58;;;;;;;14.55;3.20;;;12.80;99.90;;;;;;5008989;28;20022;-85
2023/01/05 11:42:23;;;;;;;15.35;2.50;;;12.90;99.90;;;;;;5007671;28;20220;-84
2023/01/05 11:44:58;;;;;;;17.10;3.65;;;12.80;99.90;;;;;;5016165;28;20474;-86
2023/01/05 11:47:53;;;;;;;17.63;2.97;;;12.90;99.90;;;;;;5014517;28;20072;-86
2023/01/05 11:50:25;;;;;;;23.05;2.97;;;12.90;99.90;;;;;;4995351;28;20102;-85
2023/01/05 11:52:53;;;;;;;16.70;3.45;;;12.80;99.90;;;;;;4988811;28;20026;-87
2023/01/05 11:55:18;;;;;;;13.93;3.00;;;12.80;99.90;;;;;;4996126;28;20038;-86
2023/01/05 11:57:45;;;;;;;16.65;2.97;;;13.70;99.90;;;;;;5014387;28;20043;-86
2023/01/05 12:00:40;;;;;;;20.95;3.20;;;12.60;99.90;;;;;;4999639;28;20049;-84
2023/01/05 12:03:21;;;;;;;15.52;2.88;;;12.70;99.90;;;;;;4998200;28;20068;-85
2023/01/05 12:05:54;;;;;;;14.27;4.30;;;12.70;99.90;;;;;;5001857;28;20046;-87
2023/01/05 12:09:01;;;;;;;11.50;2.17;;;12.70;99.90;;;;;;5011856;28;20034;-85
2023/01/05 12:11:46;;;;;;;10.65;2.38;;;12.70;99.90;;;;;;5000726;28;20038;-85
2023/01/05 12:14:27;;;;;;;17.58;3.60;;;12.70;99.90;;;;;;5004515;28;20087;-83
2023/01/05 12:16:55;;;;;;;17.13;3.25;;;12.80;99.90;;;;;;5023022;28;20041;-84
2023/01/05 12:19:39;;;;;;;11.40;2.88;;;;;;;;;;5008713;28;20030;-83
2023/01/05 12:22:36;;;;;;;19.35;2.75;;;12.80;99.90;;;;;;5009941;28;20030;-85
2023/01/05 12:25:16;;;;;;;12.95;2.50;;;12.80;99.90;;;;;;5003407;28;20037;-81
2023/01/05 12:28:02;;;;;;;16.27;2.83;;;12.80;99.90;;;;;;5006634;28;20033;-84
2023/01/05 12:30:31;;;;;;;17.05;2.47;;;12.80;99.90;;;;;;5000989;28;20042;-83
2023/01/05 12:33:27;;;;;;;13.68;2.60;;;12.80;99.90;;;;;;5021437;28;20065;-85
2023/01/05 12:36:00;;;;;;;11.30;2.40;;;12.80;99.90;;;;;;4990187;28;20034;-86
2023/01/05 12:38:36;;;;;;;10.32;2.20;;;12.70;99.90;;;;;;4993206;28;20074;-86
2023/01/05 12:41:08;;;;;;;11.57;2.28;;;12.70;99.90;;;;;;5018778;28;20182;-87
2023/01/05 12:43:43;;;;;;;11.50;2.00;;;12.70;99.90;;;;;;5012841;28;20030;-88
2023/01/05 12:46:42;;;;;;;13.95;2.30;;;12.80;99.90;;;;;;5022085;28;20116;-87
2023/01/05 12:49:15;;;;;;;12.57;2.88;;;12.70;99.90;;;;;;5018660;28;20017;-87
2023/01/05 12:51:53;;;;;;;11.48;2.53;;;12.70;99.90;;;;;;5018702;28;20037;-87
2023/01/05 12:54:50;;;;;;;14.43;2.58;;;12.70;99.90;;;;;;5018732;28;20033;-87
2023/01/05 12:57:38;;;;;;;12.52;2.20;;;12.60;99.90;;;;;;5006146;28;20034;-86
2023/01/05 13:00:20;;;;;;;13.60;2.50;;;12.60;99.90;;;;;;5022626;28;20022;-86
2023/01/05 13:03:01;;;;;;;17.63;3.08;;;12.60;99.90;;;;;;5022010;28;20013;-87
2023/01/05 13:05:47;;;;;;;19.05;3.22;;;12.60;99.90;;;;;;5022251;28;20018;-87
2023/01/05 13:08:31;;;;;;;17.63;3.83;;;12.50;99.90;;;;;;5028623;28;20015;-88
2023/01/05 13:11:34;;;;;;;15.63;2.88;;;12.40;99.90;;;;;;5025177;28;20018;-85
2023/01/05 13:14:14;;;;;;;13.75;2.85;;;12.40;99.90;;;;;;5021766;28;20002;-87
2023/01/05 13:16:44;;;;;;;16.80;2.83;;;12.50;99.90;;;;;;5021951;28;20025;-86
2023/01/05 13:19:24;;;;;;;11.90;2.90;;;12.40;99.90;;;;;;5021259;28;20026;-86
2023/01/05 13:21:51;;;;;;;12.68;2.95;;;12.40;99.90;;;;;;5010640;28;20387;-85
2023/01/05 13:24:31;;;;;;;21.23;3.53;;;12.40;99.90;;;;;;5006680;28;20034;-85
2023/01/05 13:26:58;;;;;;;18.03;3.43;;;12.40;99.90;;;;;;5016830;28;20022;-84
2023/01/05 13:29:28;;;;;;;13.45;2.40;;;12.40;99.90;;;;;;5007785;28;20029;-85
2023/01/05 13:32:39;;;;;;;16.27;2.78;;;12.50;99.90;;;;;;5007880;28;20581;-84
2023/01/05 13:35:13;;;;;;;17.92;3.17;;;12.50;99.90;;;;;;4967254;28;20073;-86
2023/01/05 13:38:11;;;;;;;13.32;2.85;;;12.60;99.90;;;;;;4972219;28;20023;-87
2023/01/05 13:40:52;;;;;;;14.85;2.83;;;12.50;99.90;;;;;;4958333;28;20522;-85
2023/01/05 13:43:42;;;;;;;13.65;2.92;;;12.50;99.90;;;;;;5008971;28;20028;-85
2023/01/05 13:46:20;;;;;;;14.02;2.67;;;12.60;99.90;;;;;;5008706;28;20025;-83
2023/01/05 13:48:57;;;;;;;12.55;2.72;;;12.50;99.90;;;;;;5008130;28;20102;-84
2023/01/05 13:51:31;;;;;;;16.90;2.72;;;12.60;99.90;;;;;;5007635;28;20030;-86
2023/01/05 13:54:02;;;;;;;18.90;3.22;;;12.50;99.90;;;;;;5002334;28;20022;-88
2023/01/05 13:56:29;;;;;;;16.95;3.25;;;12.60;99.90;;;;;;5005598;28;20120;-86
2023/01/05 13:59:04;;;;;;;18.00;3.67;;;13.00;99.90;;;;;;4997451;28;20038;-87
2023/01/05 14:01:35;;;;;;;14.63;2.70;;;12.60;99.90;;;;;;5019013;28;20033;-88
2023/01/05 14:04:01;;;;;;;10.13;2.42;;;12.50;99.90;;;;;;5007250;28;20018;-85
2023/01/05 14:06:30;;;;;;;14.10;2.92;;;13.10;99.90;;;;;;4997446;28;20050;-86
2023/01/05 14:09:01;;;;;;;14.95;2.80;;;12.40;99.90;;;;;;5009189;28;20038;-87
2023/01/05 14:11:27;;;;;;;12.38;3.13;;;12.70;99.90;;;;;;5007581;28;20044;-86
2023/01/05 14:14:15;;;;;;;12.70;2.88;;;12.40;99.90;;;;;;5010450;28;20038;-87
2023/01/05 14:16:42;;;;;;;15.40;2.78;;;12.10;99.90;;;;;;5010101;28;20044;-88
2023/01/05 14:19:14;;;;;;;18.55;3.67;;;12.40;99.90;;;;;;5007637;28;20033;-89
2023/01/05 22:04:07;;;;;;;5.55;3.83;;;11.50;99.90;;;;;;4129980;26;20061;-81
2023/01/05 22:06:36;;;;;;;5.90;3.75;;;;;;;;;;4978049;28;20023;-80
2023/01/05 22:09:03;;;;;;;6.20;4.05;;;;;;;;;;4976612;28;20054;-80
2023/01/05 22:11:41;;;;;;;7.25;3.97;;;11.50;99.90;;;;;;4973354;28;20031;-80
2023/01/05 22:14:13;;;;;;;6.07;3.92;;;11.60;99.90;;;;;;4976165;28;20035;-81
2023/01/05 22:17:00;;;;;;;5.60;3.55;;;11.60;99.90;;;;;;4975818;28;20019;-81
2023/01/05 22:19:26;;;;;;;7.22;3.80;;;;;;;;;;4971164;28;20050;-81
2023/01/05 22:22:17;;;;;;;5.07;3.35;;;11.60;99.90;;;;;;4960423;28;20012;-82
2023/01/05 22:24:43;;;;;;;6.00;3.70;;;;;;;;;;4957365;28;20144;-83
2023/01/05 22:27:24;;;;;;;7.35;4.70;;;11.70;99.90;;;;;;4981514;28;20019;-84
2023/01/05 22:30:52;;;;;;;4.38;3.40;;;;;;;;;;4966446;29;20023;-83
2023/01/05 22:32:55;;;;;;;6.20;4.32;;;11.70;99.90;;;;;;4959606;28;20067;-83
2023/01/05 22:35:39;;;;;;;4.63;3.10;;;11.70;99.90;;;;;;4958013;29;20030;-82
2023/01/05 22:40:56;;;;;;;6.45;3.90;;;11.80;99.90;;;;;;4953145;28;20027;-83
2023/01/05 22:43:30;;;;;;;5.63;3.67;;;11.80;99.90;;;;;;4969509;28;20039;-82
2023/01/05 22:46:10;;;;;;;5.90;3.55;;;11.80;99.90;;;;;;4967673;28;20031;-81
2023/01/05 22:48:44;;;;;;;6.32;3.63;;;11.80;99.90;;;;;;4973843;28;20007;-84
2023/01/05 22:51:37;;;;;;;4.93;2.97;;;11.80;99.90;;;;;;4959077;29;20032;-81
2023/01/05 22:54:17;;;;;;;7.10;4.07;;;11.70;99.90;;;;;;4961643;28;20031;-83
2023/01/05 22:56:43;;;;;;;13.77;4.63;;;;;;;;;;4952540;29;20038;-82
2023/01/05 22:59:14;;;;;;;6.00;3.80;;;11.70;99.90;;;;;;4971975;28;20031;-82
2023/01/05 23:01:43;;;;;;;7.25;3.95;;;11.70;99.90;;;;;;4974721;28;20006;-81
2023/01/05 23:04:11;;;;;;;4.65;2.83;;;11.80;99.90;;;;;;4975165;28;20027;-80
2023/01/05 23:06:37;;;;;;;5.15;3.33;;;11.70;99.90;;;;;;4958575;28;20027;-80
2023/01/05 23:09:05;;;;;;;4.97;3.58;;;11.80;99.90;;;;;;4978041;28;20034;-82
2023/01/05 23:11:37;;;;;;;5.95;3.83;;;11.80;99.90;;;;;;4976716;28;20014;-81
2023/01/05 23:14:05;;;;;;;5.25;3.10;;;11.80;99.90;;;;;;4954367;28;20062;-79
2023/01/05 23:16:32;;;;;;;4.68;2.90;;;11.80;99.90;;;;;;4954036;28;20099;-81
2023/01/05 23:18:58;;;;;;;11.77;4.72;;;12.70;99.90;;;;;;4940389;29;20039;-80
2023/01/05 23:21:28;;;;;;;5.32;3.65;;;11.80;99.90;;;;;;4945907;28;20047;-79
2023/01/05 23:23:55;;;;;;;5.28;2.95;;;11.80;99.90;;;;;;4962464;28;20023;-78
2023/01/05 23:26:25;;;;;;;3.97;2.38;;;11.70;99.90;;;;;;4955981;28;23042;-81
2023/01/05 23:28:51;;;;;;;5.90;3.28;;;11.80;99.90;;;;;;4950502;28;20040;-81
2023/01/05 23:31:18;;;;;;;5.38;3.35;;;11.70;99.90;;;;;;4947146;28;20035;-79
2023/01/05 23:33:44;;;;;;;6.10;2.95;;;11.70;99.90;;;;;;4949263;28;20681;-80
2023/01/05 23:36:12;;;;;;;3.55;1.92;;;10.60;99.90;;;;;;4932318;29;20023;-79
2023/01/05 23:38:41;;;;;;;4.03;1.95;;;11.80;99.90;;;;;;4949134;28;20054;-79
2023/01/05 23:41:09;;;;;;;3.92;1.75;;;15.20;99.90;;;;;;4935170;29;20027;-79
2023/01/05 23:43:37;;;;;;;3.25;1.48;;;11.80;99.90;;;;;;4932472;29;20023;-81
2023/01/05 23:46:12;;;;;;;1.75;0.90;;;11.70;99.90;;;;;;4938158;28;20026;-78
2023/01/05 23:48:38;;;;;;;3.95;1.60;;;11.70;99.90;;;;;;4951328;28;20063;-78
2023/01/05 23:51:15;;;;;;;4.20;1.92;;;11.60;99.90;;;;;;4957220;28;20028;-79
2023/01/05 23:53:43;;;;;;;3.63;1.55;;;11.50;99.90;;;;;;4957625;28;20118;-79
2023/01/05 23:56:10;;;;;;;2.90;1.40;;;11.50;99.90;;;;;;4959039;28;20032;-79
2023/01/05 23:58:37;;;;;;;4.03;1.52;;;11.60;99.90;;;;;;4961684;28;20038;-80
